Time;durP1;ratioP1;P1;durP2;ratioP2;P2;SDS_P1;SDS_P2;PMS_P1;PMS_P2;Temp;Humidity;BMP_temperature;BMP_pressure;BME280_temperature;BME280_humidity;BME280_pressure;Samples;Min_cycle;Max_cycle;Signal;HPM_P1;HPM_P2
2021/06/23 00:00:23;;;;;;;4.23;3.97;;;;;;;17.21;100.00;95577.38;5106307;27;20235;-71
2021/06/23 00:02:55;;;;;;;7.27;4.13;;;;;;;17.19;100.00;95579.44;5105342;28;20224;-71
2021/06/23 00:05:23;;;;;;;4.03;3.73;;;;;;;17.20;100.00;95578.41;5103404;27;20232;-71
2021/06/23 00:07:52;;;;;;;3.87;3.67;;;;;;;17.20;100.00;95578.41;5106126;27;20308;-71
2021/06/23 00:10:21;;;;;;;6.17;3.70;;;;;;;17.21;100.00;95578.19;5099510;27;20600;-71
2021/06/23 00:12:50;;;;;;;3.07;2.87;;;;;;;17.20;100.00;95581.91;5105202;27;20217;-71
2021/06/23 00:15:20;;;;;;;3.87;3.67;;;;;;;17.15;100.00;95587.09;5103175;28;20752;-71
2021/06/23 00:17:48;;;;;;;4.37;3.83;;;;;;;17.08;100.00;95589.00;5097589;28;20633;-71
2021/06/23 00:20:18;;;;;;;3.13;3.03;;;;;;;17.06;100.00;95596.44;5095050;27;20224;-71
2021/06/23 00:22:46;;;;;;;4.13;3.93;;;;;;;17.05;100.00;95586.81;5104112;27;20221;-71
2021/06/23 00:25:14;;;;;;;3.40;3.20;;;;;;;17.05;100.00;95586.81;5104609;27;20716;-71
2021/06/23 00:27:42;;;;;;;3.47;3.37;;;;;;;17.09;100.00;95582.63;5106321;28;20240;-71
2021/06/23 00:30:12;;;;;;;3.40;3.17;;;;;;;17.14;100.00;95589.97;5106134;27;20216;-71
2021/06/23 00:32:42;;;;;;;2.83;2.63;;;;;;;17.09;100.00;95582.63;5102338;27;20276;-70
2021/06/23 00:35:11;;;;;;;3.30;3.10;;;;;;;17.09;100.00;95582.63;5100101;27;20225;-70
2021/06/23 00:37:40;;;;;;;4.03;3.83;;;;;;;17.04;100.00;95586.00;5102560;28;20310;-71
2021/06/23 00:40:11;;;;;;;4.73;4.43;;;;;;;17.07;100.00;95592.72;5100491;27;20459;-71
2021/06/23 00:42:42;;;;;;;5.03;3.87;;;;;;;17.12;100.00;95590.22;5093383;27;20220;-71
2021/06/23 00:45:13;;;;;;;3.43;2.80;;;;;;;17.09;100.00;95587.97;5103240;28;20236;-71
2021/06/23 00:47:45;;;;;;;3.30;3.20;;;;;;;17.05;100.00;95589.47;5105984;28;20763;-72
2021/06/23 00:50:16;;;;;;;2.97;2.87;;;;;;;17.05;100.00;95584.16;5119632;27;20221;-71
2021/06/23 00:52:55;;;;;;;3.83;3.33;;;;;;;17.02;100.00;95588.09;5117932;27;20224;-71
2021/06/23 00:55:29;;;;;;;3.77;3.57;;;;;;;17.09;100.00;95590.63;5103840;27;20698;-71
2021/06/23 00:57:57;;;;;;;5.07;3.57;;;;;;;17.09;100.00;95593.31;5105763;27;20585;-71
2021/06/23 01:00:29;;;;;;;4.60;4.30;;;;;;;17.05;100.00;95590.28;5103598;27;20215;-71
2021/06/23 01:03:03;;;;;;;3.20;3.07;;;;;;;17.04;100.00;95595.84;5104256;27;20227;-71
2021/06/23 01:05:35;;;;;;;5.20;4.73;;;;;;;17.00;100.00;95594.66;5104326;27;20216;-71
2021/06/23 01:08:09;;;;;;;4.60;4.37;;;;;;;16.97;100.00;95592.47;5103112;28;20629;-71
2021/06/23 01:10:39;;;;;;;5.77;5.17;;;;;;;16.91;100.00;95596.81;5102603;28;20589;-71
2021/06/23 01:13:35;;;;;;;5.63;5.13;;;;;;;16.90;100.00;95595.19;5097370;27;20252;-71
2021/06/23 01:16:09;;;;;;;6.53;5.50;;;;;;;16.96;100.00;95593.50;5102749;28;20682;-71
2021/06/23 01:18:38;;;;;;;4.93;4.63;;;;;;;16.90;100.00;95591.72;5103062;28;20262;-72
2021/06/23 01:21:08;;;;;;;5.10;4.80;;;;;;;16.83;100.00;95591.00;5101510;28;20213;-72
2021/06/23 01:23:39;;;;;;;5.20;4.90;;;;;;;16.79;100.00;95595.97;5093635;28;20232;-71
2021/06/23 01:26:08;;;;;;;5.50;5.10;;;;;;;16.75;100.00;95590.28;5093521;28;20243;-71
2021/06/23 01:28:42;;;;;;;5.30;4.90;;;;;;;16.74;100.00;95586.00;5099905;28;20227;-72
2021/06/23 01:31:17;;;;;;;5.97;5.67;;;;;;;16.69;100.00;95577.84;5103255;27;20227;-71
2021/06/23 01:33:48;;;;;;;5.93;5.63;;;;;;;16.65;100.00;95571.31;5102641;27;20217;-71
2021/06/23 01:36:19;;;;;;;8.03;7.43;;;;;;;16.61;100.00;95570.13;5094447;27;20221;-71
2021/06/23 01:38:51;;;;;;;6.50;6.20;;;;;;;16.64;100.00;95561.69;5094214;27;20220;-71
2021/06/23 01:41:19;;;;;;;7.23;6.70;;;;;;;16.58;100.00;95559.91;5092250;28;20769;-71
2021/06/23 01:43:49;;;;;;;7.87;7.20;;;;;;;16.51;100.00;95559.16;5101011;28;20221;-71
2021/06/23 01:46:18;;;;;;;10.70;7.70;;;;;;;16.52;100.00;95560.78;5097242;28;20296;-71
2021/06/23 01:48:47;;;;;;;7.70;7.20;;;;;;;16.53;100.00;95562.41;5090257;27;20281;-71
2021/06/23 01:51:18;;;;;;;8.87;8.27;;;;;;;16.53;100.00;95562.41;5103542;27;20236;-71
2021/06/23 01:53:49;;;;;;;7.20;6.47;;;;;;;16.62;100.00;95570.94;5098740;28;20235;-71
2021/06/23 01:56:18;;;;;;;7.67;7.07;;;;;;;16.68;100.00;95560.22;5087802;27;20250;-71
2021/06/23 01:58:47;;;;;;;6.97;6.47;;;;;;;16.69;100.00;95572.50;5104376;27;20555;-71
2021/06/23 02:01:50;;;;;;;6.23;5.97;;;;;;;16.62;100.00;95569.06;5103345;27;20217;-71
2021/06/23 02:04:50;;;;;;;8.77;8.27;;;;;;;16.58;100.00;95575.91;5087536;28;20224;-71
2021/06/23 02:07:47;;;;;;;6.87;6.57;;;;;;;16.68;100.00;95570.03;5086781;28;20225;-71
2021/06/23 02:10:45;;;;;;;7.03;6.50;;;;;;;16.69;100.00;95571.69;5081960;28;20292;-71
2021/06/23 02:14:00;;;;;;;5.53;5.17;;;;;;;16.76;100.00;95573.25;5090633;28;20213;-71
2021/06/23 02:16:55;;;;;;;7.23;6.77;;;;;;;16.68;100.00;95568.22;5080343;28;20226;-71
2021/06/23 02:19:27;;;;;;;8.33;7.43;;;;;;;16.59;100.00;95566.88;5090664;28;20224;-71
2021/06/23 02:22:14;;;;;;;7.23;6.83;;;;;;;16.52;100.00;95568.78;5092684;28;20705;-71
2021/06/23 02:24:46;;;;;;;8.47;7.93;;;;;;;16.50;100.00;95568.19;5083842;28;20224;-71
2021/06/23 02:27:28;;;;;;;8.23;7.73;;;;;;;16.50;100.00;95557.56;5087026;28;20320;-71
2021/06/23 02:29:58;;;;;;;7.53;7.07;;;;;;;16.52;100.00;95554.66;5071720;28;20222;-71
2021/06/23 02:32:31;;;;;;;7.30;6.93;;;;;;;16.44;100.00;95555.75;5076401;28;20611;-71
2021/06/23 02:35:03;;;;;;;6.57;6.17;;;;;;;16.54;100.00;95563.22;5081962;28;20636;-71
2021/06/23 02:37:49;;;;;;;6.60;6.20;;;;;;;16.56;100.00;95577.97;5078153;28;20225;-71
2021/06/23 02:40:20;;;;;;;7.50;7.03;;;;;;;16.44;100.00;95593.88;5080620;28;20485;-71
2021/06/23 02:42:58;;;;;;;6.77;6.27;;;;;;;16.45;100.00;95592.81;5086223;27;20313;-71
2021/06/23 02:45:28;;;;;;;7.23;6.77;;;;;;;16.44;100.00;95595.72;5083445;28;20306;-71
2021/06/23 02:47:59;;;;;;;6.43;6.03;;;;;;;16.40;100.00;95602.53;5078069;28;20245;-71
2021/06/23 02:50:57;;;;;;;5.63;5.30;;;;;;;16.43;100.00;95588.75;5082875;28;20217;-71
2021/06/23 02:53:28;;;;;;;5.93;5.53;;;;;;;16.42;100.00;95600.47;5093731;28;20217;-68
2021/06/23 02:55:58;;;;;;;7.07;6.63;;;;;;;16.37;100.00;95598.47;5093815;27;20236;-68
2021/06/23 02:58:31;;;;;;;6.37;6.00;;;;;;;16.41;100.00;95590.84;5079181;28;20288;-68
2021/06/23 03:01:01;;;;;;;4.70;4.50;;;;;;;16.43;100.00;95591.44;5080506;28;20225;-68
2021/06/23 03:03:40;;;;;;;6.73;5.43;;;;;;;16.46;100.00;95599.81;5091455;28;20334;-68
2021/06/23 03:06:10;;;;;;;4.93;4.73;;;;;;;16.47;100.00;95611.28;5086298;28;20750;-68
2021/06/23 03:08:39;;;;;;;5.60;5.23;;;;;;;16.47;100.00;95611.28;5083357;28;20590;-68
2021/06/23 03:11:12;;;;;;;5.20;5.00;;;;;;;16.46;100.00;95612.31;5089218;28;20700;-68
2021/06/23 03:14:04;;;;;;;6.23;5.90;;;;;;;16.51;100.00;95612.44;5103560;28;20668;-68
2021/06/23 03:16:40;;;;;;;6.37;5.90;;;;;;;16.48;100.00;95615.56;5105664;28;20590;-68
2021/06/23 03:19:13;;;;;;;5.13;4.37;;;;;;;16.47;100.00;95614.75;5109350;27;20221;-68
2021/06/23 03:21:42;;;;;;;4.00;3.80;;;;;;;16.48;100.00;95619.03;5102295;28;20227;-68
2021/06/23 03:24:11;;;;;;;3.73;3.53;;;;;;;16.50;100.00;95621.47;5099274;27;20250;-69
2021/06/23 03:26:42;;;;;;;4.40;4.20;;;;;;;16.53;100.00;95626.34;5098938;28;20224;-68
2021/06/23 03:29:26;;;;;;;5.90;5.37;;;;;;;16.60;100.00;95629.75;5106536;27;20287;-68
2021/06/23 03:31:55;;;;;;;5.50;5.20;;;;;;;16.50;100.00;95638.28;5104029;27;20228;-68
2021/06/23 03:34:29;;;;;;;5.80;5.40;;;;;;;16.47;100.00;95640.56;5104323;28;20335;-68
2021/06/23 03:37:02;;;;;;;4.43;4.07;;;;;;;16.46;100.00;95641.63;5098049;27;20220;-68
2021/06/23 03:39:34;;;;;;;5.87;5.57;;;;;;;16.45;100.00;95647.94;5103285;27;20452;-67
2021/06/23 03:42:07;;;;;;;5.40;5.07;;;;;;;16.48;100.00;95650.19;5119639;27;20224;-68
2021/06/23 03:44:36;;;;;;;4.23;4.03;;;;;;;16.41;100.00;95639.59;5105915;27;20231;-68
2021/06/23 03:47:05;;;;;;;4.10;3.90;;;;;;;16.48;100.00;95639.53;5106148;27;20810;-68
2021/06/23 03:49:38;;;;;;;4.10;3.90;;;;;;;16.49;100.00;95643.81;5104863;27;20291;-68
2021/06/23 03:52:07;;;;;;;4.20;4.00;;;;;;;16.60;100.00;95640.44;5098498;27;20220;-68
2021/06/23 03:54:35;;;;;;;4.67;4.37;;;;;;;16.55;100.00;95645.63;5098997;27;20220;-68
2021/06/23 03:57:04;;;;;;;4.97;4.67;;;;;;;16.50;100.00;95653.44;5106146;27;20227;-68
2021/06/23 03:59:34;;;;;;;8.87;6.20;;;;;;;16.37;100.00;95661.59;5105397;28;20221;-68
2021/06/23 04:02:03;;;;;;;5.07;4.77;;;;;;;16.30;100.00;95664.31;5112419;27;20873;-68
2021/06/23 04:04:31;;;;;;;5.40;5.10;;;;;;;16.23;100.00;95662.72;5103982;28;20768;-68
2021/06/23 04:07:09;;;;;;;5.50;5.00;;;;;;;16.19;100.00;95668.50;5106351;28;20274;-69
2021/06/23 04:09:38;;;;;;;4.30;4.10;;;;;;;16.20;100.00;95663.97;5105064;27;20231;-68
2021/06/23 04:12:14;;;;;;;4.57;4.27;;;;;;;16.21;100.00;95677.06;5090962;27;20306;-69
2021/06/23 04:14:46;;;;;;;3.80;3.60;;;;;;;16.19;100.00;95673.81;5084085;28;20449;-69
2021/06/23 04:17:14;;;;;;;3.47;3.27;;;;;;;16.19;100.00;95676.47;5097839;28;20300;-69
2021/06/23 04:19:42;;;;;;;4.27;4.07;;;;;;;16.19;100.00;95668.50;5101203;28;20678;-69
2021/06/23 04:22:24;;;;;;;3.10;3.00;;;;;;;16.25;100.00;95661.47;5090535;27;20223;-68
2021/06/23 04:24:55;;;;;;;3.70;3.50;;;;;;;16.24;100.00;95656.38;5083123;28;20253;-68
2021/06/23 04:27:23;;;;;;;3.93;3.73;;;;;;;16.23;100.00;95663.53;5090860;28;20249;-68
2021/06/23 04:29:53;;;;;;;3.13;2.93;;;;;;;16.21;100.00;95666.44;5099810;28;20582;-68
2021/06/23 04:32:21;;;;;;;3.17;3.07;;;;;;;16.18;100.00;95656.22;5080842;28;20296;-68
2021/06/23 04:34:59;;;;;;;3.00;2.90;;;;;;;16.20;100.00;95648.81;5074245;28;20300;-69
2021/06/23 04:37:39;;;;;;;2.73;2.63;;;;;;;16.21;100.00;95637.13;5084707;28;20221;-68
2021/06/23 04:40:10;;;;;;;3.30;3.10;;;;;;;16.19;100.00;95628.56;5072394;28;20270;-68
2021/06/23 04:42:39;;;;;;;2.07;1.97;;;;;;;16.21;100.00;95634.47;5083138;28;20770;-68
2021/06/23 04:45:12;;;;;;;1.70;1.60;;;;;;;16.25;100.00;95634.03;5096446;28;20539;-68
2021/06/23 04:47:52;;;;;;;3.07;2.87;;;;;;;16.27;100.00;95639.94;5113435;27;20303;-68
2021/06/23 04:50:20;;;;;;;2.47;2.30;;;;;;;16.29;100.00;95638.72;5099206;28;20297;-68
2021/06/23 04:53:04;;;;;;;2.10;2.00;;;;;;;16.30;100.00;95650.16;5073618;28;20907;-68
2021/06/23 04:55:33;;;;;;;2.00;1.90;;;;;;;16.33;100.00;95652.38;5088097;28;20289;-69
2021/06/23 04:58:07;;;;;;;1.90;1.80;;;;;;;16.40;100.00;95647.81;5111461;27;20217;-68
2021/06/23 05:00:35;;;;;;;2.33;2.23;;;;;;;16.49;100.00;95659.81;5091444;28;20720;-68
2021/06/23 05:03:10;;;;;;;2.13;2.03;;;;;;;16.55;100.00;95650.94;5086421;28;20212;-67
2021/06/23 05:05:39;;;;;;;3.47;2.40;;;;;;;16.64;100.00;95649.63;5103980;27;20235;-68
2021/06/23 05:08:08;;;;;;;3.10;2.90;;;;;;;16.72;100.00;95646.66;5097099;28;20593;-68
2021/06/23 05:10:36;;;;;;;2.40;2.30;;;;;;;16.83;100.00;95646.97;5099104;27;20221;-68
2021/06/23 05:13:05;;;;;;;1.80;1.70;;;;;;;16.94;100.00;95651.56;5094157;27;20289;-68
2021/06/23 05:15:33;;;;;;;1.70;1.60;;;;;;;17.10;100.00;95647.44;5103027;27;20217;-68
2021/06/23 05:18:03;;;;;;;2.10;2.00;;;;;;;17.26;99.14;95652.97;5104391;27;20587;-67
2021/06/23 05:20:31;;;;;;;1.60;1.50;;;;;;;17.38;97.58;95657.56;5105201;27;20213;-68
2021/06/23 05:22:59;;;;;;;1.87;1.77;;;;;;;17.42;96.03;95661.41;5102898;27;20325;-68
2021/06/23 05:25:29;;;;;;;1.67;1.60;;;;;;;17.46;95.89;95657.22;5100236;27;20244;-68
2021/06/23 05:27:57;;;;;;;2.93;2.77;;;;;;;17.52;95.66;95659.00;5097107;27;20216;-69
2021/06/23 05:30:25;;;;;;;2.33;2.23;;;;;;;17.59;95.38;95641.03;5105289;28;20343;-68
2021/06/23 05:32:54;;;;;;;1.67;1.57;;;;;;;17.69;94.14;95635.97;5095307;28;20706;-68
2021/06/23 05:35:23;;;;;;;2.13;2.03;;;;;;;17.71;94.20;95644.56;5088065;28;20291;-69
2021/06/23 05:37:51;;;;;;;1.50;1.40;;;;;;;17.77;94.41;95638.34;5085911;28;20221;-69
2021/06/23 05:40:19;;;;;;;1.20;1.10;;;;;;;17.94;94.21;95645.69;5068329;28;20299;-68
2021/06/23 05:42:48;;;;;;;2.07;1.43;;;;;;;18.10;93.72;95637.78;5065351;28;20284;-68
2021/06/23 05:45:16;;;;;;;1.43;1.43;;;;;;;18.24;92.82;95643.72;5084510;28;21128;-69
2021/06/23 05:47:44;;;;;;;0.70;0.70;;;;;;;18.37;90.96;95650.69;5083365;28;20600;-69
2021/06/23 05:50:13;;;;;;;2.50;0.67;;;;;;;18.43;88.20;95653.25;5100550;28;20228;-69
2021/06/23 05:52:42;;;;;;;0.87;0.87;;;;;;;18.43;89.27;95658.59;5101828;28;20317;-69
2021/06/23 05:55:11;;;;;;;1.17;1.07;;;;;;;18.39;90.15;95672.66;5101067;28;20867;-68
2021/06/23 05:57:39;;;;;;;0.80;0.80;;;;;;;18.36;90.21;95673.09;5104567;27;20265;-68
2021/06/23 06:00:10;;;;;;;1.00;1.00;;;;;;;18.28;90.65;95684.94;5104142;28;20225;-69
2021/06/23 06:02:41;;;;;;;0.77;0.77;;;;;;;18.27;91.18;95679.84;5103798;28;20701;-69
2021/06/23 06:05:10;;;;;;;6.20;1.07;;;;;;;18.33;92.04;95674.38;5102798;27;20311;-69
2021/06/23 06:07:37;;;;;;;0.53;0.53;;;;;;;18.46;91.54;95673.34;5103950;27;20278;-69
2021/06/23 06:10:06;;;;;;;1.43;0.50;;;;;;;18.66;90.71;95678.38;5100435;28;20220;-69
2021/06/23 06:12:34;;;;;;;0.50;0.50;;;;;;;18.81;88.81;95676.00;5103027;28;20243;-68
2021/06/23 06:15:03;;;;;;;0.70;0.70;;;;;;;18.99;85.14;95678.53;5099147;28;20225;-68
2021/06/23 06:17:33;;;;;;;0.50;0.50;;;;;;;19.14;84.43;95674.56;5102543;28;20273;-68
2021/06/23 06:20:01;;;;;;;0.40;0.30;;;;;;;19.26;83.44;95678.00;5104450;28;20625;-69
2021/06/23 06:22:29;;;;;;;0.40;0.40;;;;;;;19.33;82.75;95670.66;5104388;28;20681;-68
2021/06/23 06:24:58;;;;;;;1.07;0.50;;;;;;;19.28;82.19;95678.59;5101939;28;20235;-68
2021/06/23 06:27:26;;;;;;;0.47;0.40;;;;;;;19.24;83.10;95674.75;5097689;27;20268;-69
2021/06/23 06:29:54;;;;;;;1.03;0.37;;;;;;;19.20;82.87;95681.63;5103596;27;20613;-69
2021/06/23 06:32:23;;;;;;;0.63;0.63;;;;;;;19.19;84.01;95690.69;5104724;27;20311;-68
2021/06/23 06:34:52;;;;;;;0.30;0.30;;;;;;;19.24;85.76;95698.84;5099634;27;20289;-68
2021/06/23 06:37:20;;;;;;;0.33;0.33;;;;;;;19.25;86.78;95703.16;5099177;28;20220;-70
2021/06/23 06:39:48;;;;;;;0.67;0.40;;;;;;;19.27;84.14;95706.38;5095280;28;20885;-69
2021/06/23 06:42:16;;;;;;;0.47;0.43;;;;;;;19.30;83.42;95705.94;5103475;28;20251;-69
2021/06/23 06:44:45;;;;;;;0.20;0.20;;;;;;;19.23;83.84;95705.25;5106921;27;20598;-69
2021/06/23 06:47:13;;;;;;;1.13;0.90;;;;;;;19.33;83.12;95706.25;5103874;27;20653;-69
2021/06/23 06:49:41;;;;;;;0.50;0.47;;;;;;;19.38;82.73;95700.19;5099981;27;20628;-68
2021/06/23 06:52:11;;;;;;;1.43;0.40;;;;;;;19.49;82.90;95703.91;5107242;27;20299;-69
2021/06/23 06:54:39;;;;;;;0.33;0.33;;;;;;;19.53;82.60;95708.53;5106361;27;20256;-69
2021/06/23 06:57:07;;;;;;;0.60;0.60;;;;;;;19.58;82.38;95697.94;5108733;28;20328;-69
2021/06/23 06:59:35;;;;;;;0.70;0.50;;;;;;;19.57;82.30;95690.97;5108396;27;20232;-69
2021/06/23 07:02:04;;;;;;;0.30;0.30;;;;;;;19.64;81.26;95685.44;5105287;27;20655;-69
2021/06/23 07:04:32;;;;;;;0.53;0.53;;;;;;;19.75;81.01;95686.44;5106778;27;20427;-68
2021/06/23 07:07:00;;;;;;;0.50;0.50;;;;;;;19.85;81.58;95689.34;5108176;28;20221;-68
2021/06/23 07:09:29;;;;;;;0.93;0.70;;;;;;;20.12;81.65;95682.31;5100279;27;20606;-69
2021/06/23 07:11:57;;;;;;;0.70;0.70;;;;;;;20.36;78.88;95682.13;5100002;27;20682;-69
2021/06/23 07:14:26;;;;;;;0.50;0.47;;;;;;;20.41;78.56;95695.63;5100569;28;20517;-68
2021/06/23 07:16:53;;;;;;;1.07;1.07;;;;;;;20.64;79.72;95700.81;5107643;27;20232;-69
2021/06/23 07:19:22;;;;;;;0.60;0.60;;;;;;;20.96;79.91;95708.25;5093615;27;20213;-69
2021/06/23 07:21:50;;;;;;;0.50;0.50;;;;;;;21.04;77.71;95693.59;5097864;27;20347;-68
2021/06/23 07:24:19;;;;;;;0.87;0.87;;;;;;;21.02;76.41;95696.50;5104871;27;20300;-69
2021/06/23 07:26:54;;;;;;;1.23;0.93;;;;;;;20.92;76.50;95686.44;5106271;28;20232;-68
2021/06/23 07:29:22;;;;;;;0.50;0.50;;;;;;;20.78;77.51;95687.88;5104118;27;20715;-69
2021/06/23 07:31:56;;;;;;;1.10;0.80;;;;;;;20.73;78.71;95677.88;5105196;28;20313;-69
2021/06/23 07:37:26;;;;;;;1.30;1.20;;;;;;;21.06;79.42;95697.66;5104191;28;20221;-68
2021/06/23 07:39:53;;;;;;;2.10;1.50;;;;;;;21.29;78.79;95696.59;5105504;27;20217;-68
2021/06/23 07:42:23;;;;;;;1.37;1.27;;;;;;;21.45;77.42;95695.72;5106773;27;20358;-68
2021/06/23 07:44:56;;;;;;;2.93;1.90;;;;;;;21.48;77.15;95699.78;5105857;27;20225;-68
2021/06/23 07:47:26;;;;;;;1.13;1.13;;;;;;;21.57;76.43;95703.63;5107458;28;20644;-68
2021/06/23 07:49:55;;;;;;;0.93;0.93;;;;;;;21.81;75.71;95690.75;5103285;27;20300;-69
2021/06/23 07:52:36;;;;;;;1.27;1.00;;;;;;;22.09;75.30;95692.38;5104158;27;20225;-68
2021/06/23 07:55:09;;;;;;;1.73;1.60;;;;;;;22.42;75.55;95694.81;5106095;27;20244;-69
2021/06/23 08:11:29;;;;;;;1.60;1.50;;;;;;;23.42;69.66;95681.41;5101153;27;20337;-69
2021/06/23 08:14:00;;;;;;;1.27;1.27;;;;;;;23.46;68.16;95687.88;5104540;27;20234;-69
2021/06/23 08:16:28;;;;;;;1.33;1.33;;;;;;;23.43;69.36;95688.41;5103760;27;20798;-69
2021/06/23 08:18:56;;;;;;;1.13;1.13;;;;;;;23.62;68.71;95699.56;5101537;27;20229;-69
2021/06/23 08:21:25;;;;;;;2.60;2.45;;;;;;;23.59;67.58;95700.09;5106481;27;20217;-68
2021/06/23 08:23:53;;;;;;;1.13;1.13;;;;;;;23.37;68.69;95694.03;5102962;27;20624;-69
2021/06/23 08:26:21;;;;;;;1.65;1.55;;;;;;;23.32;69.73;95694.84;5086326;28;20251;-69
2021/06/23 08:28:49;;;;;;;1.35;1.30;;;;;;;23.21;71.56;95698.53;5090097;27;20312;-68
2021/06/23 08:31:18;;;;;;;1.17;1.17;;;;;;;23.04;70.59;95690.66;5106081;27;20361;-69
2021/06/23 08:33:46;;;;;;;3.08;1.33;;;;;;;23.16;71.51;95698.53;5098392;27;20785;-69
2021/06/23 08:36:14;;;;;;;1.42;1.33;;;;;;;23.54;70.96;95698.16;5105732;27;20591;-69
2021/06/23 08:38:43;;;;;;;1.95;0.82;;;;;;;23.67;69.00;95693.34;5099178;27;20587;-69
2021/06/23 08:41:11;;;;;;;3.65;1.70;;;;;;;24.01;69.29;95694.50;5105966;28;20266;-69
2021/06/23 08:43:39;;;;;;;1.17;1.17;;;;;;;24.21;67.65;95691.03;5105603;27;20305;-68
2021/06/23 08:46:07;;;;;;;1.77;1.65;;;;;;;24.65;67.19;95690.50;5106457;28;20220;-68
2021/06/23 08:48:38;;;;;;;1.33;1.30;;;;;;;24.86;66.19;95688.56;5099499;27;20224;-69
2021/06/23 08:51:08;;;;;;;1.80;1.70;;;;;;;24.92;66.00;95690.19;5100432;28;20246;-69
2021/06/23 08:53:36;;;;;;;0.93;0.93;;;;;;;25.21;66.25;95685.00;5096785;27;20679;-69
2021/06/23 08:56:05;;;;;;;1.00;1.00;;;;;;;25.67;65.36;95682.09;5102742;27;20230;-68
2021/06/23 08:58:34;;;;;;;1.75;1.45;;;;;;;26.08;63.58;95680.00;5099749;27;20225;-69
2021/06/23 09:01:02;;;;;;;2.53;1.17;;;;;;;26.29;61.69;95681.47;5094677;27;20225;-69
2021/06/23 09:03:30;;;;;;;1.48;1.38;;;;;;;26.27;61.89;95680.94;5096215;28;20270;-69
2021/06/23 09:06:00;;;;;;;1.35;1.25;;;;;;;26.51;61.29;95681.03;5103274;27;20235;-68
2021/06/23 09:08:31;;;;;;;1.13;1.13;;;;;;;26.44;62.47;95679.75;5105419;28;20306;-69
2021/06/23 09:11:00;;;;;;;1.20;1.20;;;;;;;26.39;61.34;95672.47;5087051;27;20236;-69
2021/06/23 09:13:29;;;;;;;1.88;1.58;;;;;;;26.43;59.48;95675.44;5100140;28;20224;-69
2021/06/23 09:15:59;;;;;;;3.00;0.77;;;;;;;26.36;58.82;95668.41;5098542;27;20454;-69
2021/06/23 09:18:33;;;;;;;1.65;1.55;;;;;;;26.14;59.40;95676.16;5085219;27;20217;-69
2021/06/23 09:21:05;;;;;;;1.17;1.08;;;;;;;26.28;61.11;95670.94;5102261;28;20221;-69
2021/06/23 09:23:41;;;;;;;1.05;0.98;;;;;;;26.30;59.96;95674.97;5102229;27;20293;-69
2021/06/23 09:26:11;;;;;;;1.15;1.15;;;;;;;26.09;62.19;95673.50;5096267;27;20277;-68
2021/06/23 09:28:41;;;;;;;1.50;1.40;;;;;;;26.20;61.01;95674.22;5084857;28;20217;-69
2021/06/23 09:31:09;;;;;;;0.80;0.80;;;;;;;26.41;62.31;95669.50;5101343;28;20217;-68
2021/06/23 09:33:38;;;;;;;1.90;1.80;;;;;;;26.52;61.20;95676.44;5091925;28;20762;-69
2021/06/23 09:36:11;;;;;;;1.30;1.30;;;;;;;26.42;61.52;95666.50;5095962;27;20262;-69
2021/06/23 09:38:59;;;;;;;1.15;1.15;;;;;;;26.13;62.16;95663.72;5090106;27;20221;-69
2021/06/23 09:41:29;;;;;;;1.67;1.58;;;;;;;25.93;62.16;95658.47;5088817;28;20217;-68
2021/06/23 09:44:03;;;;;;;2.20;1.23;;;;;;;25.78;63.60;95668.28;5100513;28;20760;-68
2021/06/23 09:46:33;;;;;;;3.17;2.58;;;;;;;25.98;62.56;95663.84;5099414;27;20406;-68
2021/06/23 09:49:05;;;;;;;2.17;2.08;;;;;;;26.52;63.44;95660.22;5101159;28;20300;-68
2021/06/23 09:51:44;;;;;;;1.75;1.73;;;;;;;26.67;59.16;95662.75;5101573;27;20929;-68
2021/06/23 09:54:14;;;;;;;1.63;1.52;;;;;;;26.53;60.45;95661.81;5094218;28;20540;-69
2021/06/23 09:56:56;;;;;;;1.20;1.20;;;;;;;26.74;60.73;95657.81;5084572;28;20685;-69
2021/06/23 09:59:28;;;;;;;1.75;1.70;;;;;;;26.99;59.73;95653.25;5093761;28;20249;-69
2021/06/23 10:01:56;;;;;;;1.15;1.15;;;;;;;27.31;61.42;95655.31;5098470;27;20217;-69
2021/06/23 10:04:32;;;;;;;3.15;2.70;;;;;;;27.58;59.01;95646.56;5102357;28;20303;-69
2021/06/23 10:07:02;;;;;;;1.23;1.23;;;;;;;28.11;59.41;95632.81;5105488;27;20723;-69
2021/06/23 10:09:32;;;;;;;1.13;1.13;;;;;;;28.60;58.34;95637.72;5103838;27;20319;-70
2021/06/23 10:12:05;;;;;;;1.50;1.40;;;;;;;29.03;57.89;95641.03;5105436;28;20573;-69
2021/06/23 10:14:35;;;;;;;4.95;3.50;;;;;;;29.06;55.46;95631.47;5094159;27;23157;-69
2021/06/23 10:17:04;;;;;;;2.15;2.05;;;;;;;28.72;56.52;95629.91;5106374;27;20227;-69
2021/06/23 10:19:33;;;;;;;3.60;2.47;;;;;;;28.61;56.89;95640.13;5107022;27;20303;-69
2021/06/23 10:22:06;;;;;;;1.83;1.73;;;;;;;28.38;56.15;95635.66;5105893;27;20229;-69
2021/06/23 10:24:55;;;;;;;1.92;1.83;;;;;;;28.05;56.09;95632.88;5103910;27;20223;-69
2021/06/23 10:27:24;;;;;;;2.47;2.38;;;;;;;28.01;57.67;95631.88;5108779;28;20231;-69
2021/06/23 10:29:55;;;;;;;2.85;2.65;;;;;;;27.88;57.14;95632.59;5101289;28;20315;-70
2021/06/23 10:32:23;;;;;;;1.65;1.55;;;;;;;27.65;59.38;95630.75;5107448;27;20232;-69
2021/06/23 10:34:52;;;;;;;1.70;1.60;;;;;;;27.89;58.04;95628.81;5090851;27;20282;-69
2021/06/23 10:37:22;;;;;;;1.42;1.42;;;;;;;28.12;56.97;95627.09;5106299;27;20709;-69
2021/06/23 10:39:51;;;;;;;3.15;2.75;;;;;;;28.33;56.80;95614.00;5105624;27;20221;-71
2021/06/23 10:42:22;;;;;;;1.92;1.83;;;;;;;27.88;57.74;95621.75;5107003;27;20224;-69
2021/06/23 10:44:54;;;;;;;2.03;1.92;;;;;;;27.81;57.57;95626.75;5093665;27;20253;-69
2021/06/23 10:47:30;;;;;;;2.67;2.47;;;;;;;27.48;57.79;95623.94;5087642;28;20613;-69
2021/06/23 10:49:58;;;;;;;1.58;1.58;;;;;;;28.10;60.19;95625.78;5102457;27;20216;-69
2021/06/23 10:52:40;;;;;;;2.22;2.13;;;;;;;28.47;56.14;95633.88;5103467;27;20213;-68
2021/06/23 10:55:45;;;;;;;2.58;2.42;;;;;;;28.39;55.54;95626.41;5105072;27;20693;-69
2021/06/23 10:58:13;;;;;;;1.85;1.80;;;;;;;28.41;58.04;95624.19;5102601;28;20308;-69
2021/06/23 11:00:46;;;;;;;2.47;2.35;;;;;;;28.17;54.91;95632.44;5105083;28;20248;-69
2021/06/23 11:03:16;;;;;;;2.42;2.33;;;;;;;27.47;56.58;95630.44;5104540;27;20692;-69
2021/06/23 11:05:46;;;;;;;2.38;2.28;;;;;;;27.02;56.34;95636.41;5107398;28;20221;-68
2021/06/23 11:08:27;;;;;;;1.45;1.45;;;;;;;26.63;57.40;95635.47;5106612;27;20231;-68
2021/06/23 11:10:57;;;;;;;1.60;1.50;;;;;;;26.45;58.40;95638.88;5106606;27;20244;-69
2021/06/23 11:13:27;;;;;;;1.70;1.70;;;;;;;26.87;62.02;95635.47;5100927;28;20217;-68
2021/06/23 11:15:56;;;;;;;2.38;1.95;;;;;;;27.28;59.57;95629.63;5107144;27;20607;-69
2021/06/23 11:18:31;;;;;;;1.85;1.75;;;;;;;27.32;58.28;95630.63;5099676;28;20470;-68
2021/06/23 11:21:01;;;;;;;1.83;1.80;;;;;;;27.19;59.02;95629.44;5106600;27;20320;-68
2021/06/23 11:23:52;;;;;;;2.88;1.95;;;;;;;27.23;60.03;95623.44;5098610;28;20221;-69
2021/06/23 11:26:46;;;;;;;1.23;1.23;;;;;;;27.61;57.11;95616.97;5100936;27;20769;-69
2021/06/23 11:29:31;;;;;;;1.65;1.55;;;;;;;27.91;55.67;95610.34;5103347;28;20221;-69
2021/06/23 11:32:04;;;;;;;2.05;1.95;;;;;;;27.99;56.74;95617.00;5105638;27;20345;-69
2021/06/23 11:34:46;;;;;;;2.08;1.98;;;;;;;28.15;56.29;95604.78;5101410;27;20259;-68
2021/06/23 11:37:16;;;;;;;4.22;2.35;;;;;;;28.39;57.59;95604.69;5100745;27;20670;-69
2021/06/23 11:39:46;;;;;;;2.75;2.65;;;;;;;28.70;55.28;95610.38;5104975;27;20217;-69
2021/06/23 11:42:15;;;;;;;2.40;2.30;;;;;;;28.79;53.82;95616.72;5108003;27;20228;-69
2021/06/23 11:44:43;;;;;;;1.60;1.60;;;;;;;28.68;55.14;95614.50;5107789;27;20300;-69
2021/06/23 11:47:12;;;;;;;4.07;2.55;;;;;;;28.69;55.69;95618.81;5103207;27;20524;-69
2021/06/23 11:49:42;;;;;;;1.52;1.48;;;;;;;28.55;57.31;95619.63;5097466;27;20225;-69
2021/06/23 11:52:11;;;;;;;2.65;1.92;;;;;;;28.80;55.15;95614.81;5106533;27;20639;-68
2021/06/23 11:54:39;;;;;;;2.58;2.45;;;;;;;28.86;53.04;95617.13;5102834;27;20224;-69
2021/06/23 11:57:10;;;;;;;2.83;2.00;;;;;;;28.75;54.17;95614.91;5102259;27;20218;-69
2021/06/23 11:59:43;;;;;;;2.65;2.00;;;;;;;28.85;55.42;95612.00;5098410;28;20698;-69
2021/06/23 12:02:12;;;;;;;2.50;2.40;;;;;;;28.56;53.38;95609.56;5096483;27;20278;-68
2021/06/23 12:04:40;;;;;;;2.10;2.00;;;;;;;27.92;55.90;95601.09;5116068;27;20690;-69
2021/06/23 12:07:08;;;;;;;1.77;1.73;;;;;;;27.71;56.03;95602.50;5087132;28;20257;-68